sensor_id;sensor_type;location;lat;lon;timestamp;pressure;altitude;pressure_sealevel;temperature;humidity
84578;BME280;74803;44.756;19.218;2023-12-20T00:01:22;100501.28;;;10.08;51.58
84578;BME280;74803;44.756;19.218;2023-12-20T00:03:48;100498.06;;;10.06;51.39
84578;BME280;74803;44.756;19.218;2023-12-20T00:06:14;100488.44;;;9.98;51.30
84578;BME280;74803;44.756;19.218;2023-12-20T00:08:39;100484.25;;;10.06;50.69
84578;BME280;74803;44.756;19.218;2023-12-20T00:11:05;100475.31;;;9.48;51.92
84578;BME280;74803;44.756;19.218;2023-12-20T00:13:30;100484.28;;;9.80;51.43
84578;BME280;74803;44.756;19.218;2023-12-20T00:15:56;100471.94;;;9.82;51.40
84578;BME280;74803;44.756;19.218;2023-12-20T00:18:22;100478.44;;;10.12;51.91
84578;BME280;74803;44.756;19.218;2023-12-20T00:20:47;100478.69;;;10.26;49.87
84578;BME280;74803;44.756;19.218;2023-12-20T00:23:13;100479.34;;;10.28;49.02
84578;BME280;74803;44.756;19.218;2023-12-20T00:25:39;100473.22;;;10.04;49.91
84578;BME280;74803;44.756;19.218;2023-12-20T00:28:05;100472.19;;;10.22;50.42
84578;BME280;74803;44.756;19.218;2023-12-20T00:30:31;100476.91;;;10.27;49.41
84578;BME280;74803;44.756;19.218;2023-12-20T00:32:56;100467.47;;;10.18;50.04
84578;BME280;74803;44.756;19.218;2023-12-20T00:35:22;100463.56;;;10.22;49.83
84578;BME280;74803;44.756;19.218;2023-12-20T00:37:47;100454.59;;;9.82;50.45
84578;BME280;74803;44.756;19.218;2023-12-20T00:40:13;100453.28;;;9.78;50.44
84578;BME280;74803;44.756;19.218;2023-12-20T00:46:00;100448.00;;;10.22;49.93
84578;BME280;74803;44.756;19.218;2023-12-20T00:48:26;100449.72;;;10.13;50.36
84578;BME280;74803;44.756;19.218;2023-12-20T00:50:57;100436.91;;;9.78;50.58
84578;BME280;74803;44.756;19.218;2023-12-20T00:53:22;100438.22;;;9.82;50.45
84578;BME280;74803;44.756;19.218;2023-12-20T00:55:48;100446.97;;;9.29;52.04
84578;BME280;74803;44.756;19.218;2023-12-20T00:58:15;100441.94;;;9.53;51.17
84578;BME280;74803;44.756;19.218;2023-12-20T01:00:41;100437.25;;;9.83;50.66
84578;BME280;74803;44.756;19.218;2023-12-20T01:03:08;100427.09;;;9.97;49.68
84578;BME280;74803;44.756;19.218;2023-12-20T01:05:33;100425.75;;;9.34;50.40
84578;BME280;74803;44.756;19.218;2023-12-20T01:08:00;100420.22;;;9.54;50.56
84578;BME280;74803;44.756;19.218;2023-12-20T01:10:28;100424.34;;;9.39;51.07
84578;BME280;74803;44.756;19.218;2023-12-20T01:12:54;100410.09;;;9.43;50.22
84578;BME280;74803;44.756;19.218;2023-12-20T01:15:21;100423.38;;;8.97;51.62
84578;BME280;74803;44.756;19.218;2023-12-20T01:17:46;100415.56;;;9.32;50.52
84578;BME280;74803;44.756;19.218;2023-12-20T01:20:13;100410.91;;;9.18;51.67
84578;BME280;74803;44.756;19.218;2023-12-20T01:22:39;100410.59;;;8.78;51.52
84578;BME280;74803;44.756;19.218;2023-12-20T01:25:05;100410.56;;;8.60;53.72
84578;BME280;74803;44.756;19.218;2023-12-20T01:27:32;100401.63;;;8.27;53.68
84578;BME280;74803;44.756;19.218;2023-12-20T01:29:57;100400.88;;;8.17;53.88
84578;BME280;74803;44.756;19.218;2023-12-20T01:32:23;100405.28;;;8.34;53.84
84578;BME280;74803;44.756;19.218;2023-12-20T01:34:49;100399.56;;;8.58;53.41
84578;BME280;74803;44.756;19.218;2023-12-20T01:37:14;100403.13;;;8.02;54.94
84578;BME280;74803;44.756;19.218;2023-12-20T01:39:40;100402.44;;;8.28;54.58
84578;BME280;74803;44.756;19.218;2023-12-20T01:42:05;100388.75;;;8.17;54.64
84578;BME280;74803;44.756;19.218;2023-12-20T01:44:31;100378.47;;;8.71;53.20
84578;BME280;74803;44.756;19.218;2023-12-20T01:46:56;100375.56;;;8.74;52.51
84578;BME280;74803;44.756;19.218;2023-12-20T01:49:23;100374.75;;;8.55;53.15
84578;BME280;74803;44.756;19.218;2023-12-20T01:51:50;100370.38;;;8.74;52.88
84578;BME280;74803;44.756;19.218;2023-12-20T01:54:16;100370.88;;;9.13;51.21
84578;BME280;74803;44.756;19.218;2023-12-20T01:56:42;100365.28;;;9.51;50.48
84578;BME280;74803;44.756;19.218;2023-12-20T01:59:08;100353.84;;;9.36;50.53
84578;BME280;74803;44.756;19.218;2023-12-20T02:01:34;100360.19;;;9.41;49.91
84578;BME280;74803;44.756;19.218;2023-12-20T02:04:00;100362.53;;;9.01;51.82
84578;BME280;74803;44.756;19.218;2023-12-20T02:06:29;100362.06;;;9.05;51.25
84578;BME280;74803;44.756;19.218;2023-12-20T02:08:55;100344.69;;;9.24;50.98
84578;BME280;74803;44.756;19.218;2023-12-20T02:11:22;100338.59;;;9.07;51.08
84578;BME280;74803;44.756;19.218;2023-12-20T02:13:48;100330.25;;;9.21;50.58
84578;BME280;74803;44.756;19.218;2023-12-20T02:16:13;100322.59;;;9.12;51.21
84578;BME280;74803;44.756;19.218;2023-12-20T02:18:39;100328.88;;;8.65;52.47
84578;BME280;74803;44.756;19.218;2023-12-20T02:21:05;100316.66;;;8.76;52.31
84578;BME280;74803;44.756;19.218;2023-12-20T02:23:31;100323.88;;;8.90;51.36
84578;BME280;74803;44.756;19.218;2023-12-20T02:25:57;100317.88;;;8.89;52.07
84578;BME280;74803;44.756;19.218;2023-12-20T02:28:22;100305.53;;;8.83;51.17
84578;BME280;74803;44.756;19.218;2023-12-20T02:30:48;100306.00;;;8.79;51.83
84578;BME280;74803;44.756;19.218;2023-12-20T02:33:15;100313.78;;;8.61;52.27
84578;BME280;74803;44.756;19.218;2023-12-20T02:35:41;100294.91;;;8.68;52.27
84578;BME280;74803;44.756;19.218;2023-12-20T02:38:06;100301.53;;;8.63;52.09
84578;BME280;74803;44.756;19.218;2023-12-20T02:40:32;100297.69;;;8.93;51.27
84578;BME280;74803;44.756;19.218;2023-12-20T02:42:58;100294.56;;;8.89;51.59
84578;BME280;74803;44.756;19.218;2023-12-20T02:45:23;100289.84;;;8.85;51.15
84578;BME280;74803;44.756;19.218;2023-12-20T02:47:49;100285.44;;;8.77;51.08
84578;BME280;74803;44.756;19.218;2023-12-20T02:50:15;100290.94;;;8.56;51.82
84578;BME280;74803;44.756;19.218;2023-12-20T02:52:40;100284.84;;;8.65;52.00
84578;BME280;74803;44.756;19.218;2023-12-20T02:55:06;100276.66;;;8.52;52.90
84578;BME280;74803;44.756;19.218;2023-12-20T02:57:32;100272.75;;;8.92;52.30
84578;BME280;74803;44.756;19.218;2023-12-20T02:59:58;100263.53;;;8.72;53.17
84578;BME280;74803;44.756;19.218;2023-12-20T03:02:24;100267.91;;;8.97;52.35
84578;BME280;74803;44.756;19.218;2023-12-20T03:04:49;100275.97;;;9.20;51.44
84578;BME280;74803;44.756;19.218;2023-12-20T03:07:15;100265.63;;;8.94;51.55
84578;BME280;74803;44.756;19.218;2023-12-20T03:09:41;100262.06;;;8.95;51.22
84578;BME280;74803;44.756;19.218;2023-12-20T03:12:06;100262.47;;;8.82;51.15
84578;BME280;74803;44.756;19.218;2023-12-20T03:14:32;100258.00;;;8.92;51.21
84578;BME280;74803;44.756;19.218;2023-12-20T03:16:58;100263.09;;;8.76;51.50
84578;BME280;74803;44.756;19.218;2023-12-20T03:19:23;100265.47;;;8.70;51.24
84578;BME280;74803;44.756;19.218;2023-12-20T03:21:49;100258.25;;;9.07;50.96
84578;BME280;74803;44.756;19.218;2023-12-20T03:24:14;100255.81;;;8.80;51.56
84578;BME280;74803;44.756;19.218;2023-12-20T03:26:40;100248.84;;;9.06;50.08
84578;BME280;74803;44.756;19.218;2023-12-20T03:29:06;100250.88;;;8.94;50.86
84578;BME280;74803;44.756;19.218;2023-12-20T03:31:31;100243.19;;;8.59;50.80
84578;BME280;74803;44.756;19.218;2023-12-20T03:33:57;100241.69;;;8.74;50.70
84578;BME280;74803;44.756;19.218;2023-12-20T03:36:22;100246.63;;;8.85;50.15
84578;BME280;74803;44.756;19.218;2023-12-20T03:38:48;100233.56;;;8.95;50.04
84578;BME280;74803;44.756;19.218;2023-12-20T03:41:14;100228.88;;;8.98;50.05
84578;BME280;74803;44.756;19.218;2023-12-20T03:43:40;100226.94;;;8.49;50.61
84578;BME280;74803;44.756;19.218;2023-12-20T03:46:08;100231.78;;;8.08;51.71
84578;BME280;74803;44.756;19.218;2023-12-20T03:48:33;100220.16;;;8.48;51.52
84578;BME280;74803;44.756;19.218;2023-12-20T03:50:59;100216.41;;;8.42;51.38
84578;BME280;74803;44.756;19.218;2023-12-20T03:53:24;100217.91;;;8.79;50.63
84578;BME280;74803;44.756;19.218;2023-12-20T03:55:50;100212.53;;;8.46;50.72
84578;BME280;74803;44.756;19.218;2023-12-20T03:58:15;100205.53;;;8.64;50.39
84578;BME280;74803;44.756;19.218;2023-12-20T04:00:41;100207.06;;;8.75;50.40
84578;BME280;74803;44.756;19.218;2023-12-20T04:03:07;100213.97;;;8.23;50.74
84578;BME280;74803;44.756;19.218;2023-12-20T04:05:32;100206.66;;;8.62;51.26
84578;BME280;74803;44.756;19.218;2023-12-20T04:08:01;100206.34;;;8.04;51.52
84578;BME280;74803;44.756;19.218;2023-12-20T04:10:27;100204.22;;;8.86;49.65
84578;BME280;74803;44.756;19.218;2023-12-20T04:12:53;100200.81;;;9.20;49.05
84578;BME280;74803;44.756;19.218;2023-12-20T04:15:18;100194.19;;;9.25;48.78
84578;BME280;74803;44.756;19.218;2023-12-20T04:17:44;100194.22;;;8.99;48.45
84578;BME280;74803;44.756;19.218;2023-12-20T04:20:11;100189.50;;;8.61;50.13
84578;BME280;74803;44.756;19.218;2023-12-20T04:22:36;100187.69;;;8.53;50.21
84578;BME280;74803;44.756;19.218;2023-12-20T04:25:02;100196.81;;;8.65;49.94
84578;BME280;74803;44.756;19.218;2023-12-20T04:27:27;100189.97;;;8.39;50.47
84578;BME280;74803;44.756;19.218;2023-12-20T04:29:53;100183.53;;;8.25;51.17
84578;BME280;74803;44.756;19.218;2023-12-20T04:32:19;100192.91;;;7.82;51.60
84578;BME280;74803;44.756;19.218;2023-12-20T04:34:44;100185.44;;;7.97;51.07
84578;BME280;74803;44.756;19.218;2023-12-20T04:37:10;100169.22;;;8.13;50.42
84578;BME280;74803;44.756;19.218;2023-12-20T04:39:35;100176.03;;;8.14;50.83
84578;BME280;74803;44.756;19.218;2023-12-20T04:42:01;100178.84;;;7.67;51.74
84578;BME280;74803;44.756;19.218;2023-12-20T04:44:26;100175.28;;;7.51;52.63
84578;BME280;74803;44.756;19.218;2023-12-20T04:46:52;100179.88;;;7.92;51.72
84578;BME280;74803;44.756;19.218;2023-12-20T04:49:18;100169.44;;;8.19;50.69
84578;BME280;74803;44.756;19.218;2023-12-20T04:51:43;100168.34;;;8.74;49.43
84578;BME280;74803;44.756;19.218;2023-12-20T04:54:09;100175.69;;;8.52;49.34
84578;BME280;74803;44.756;19.218;2023-12-20T04:56:36;100173.34;;;8.41;50.19
84578;BME280;74803;44.756;19.218;2023-12-20T04:59:01;100178.34;;;7.81;52.09
84578;BME280;74803;44.756;19.218;2023-12-20T05:01:28;100175.88;;;8.15;51.51
84578;BME280;74803;44.756;19.218;2023-12-20T05:03:53;100179.47;;;8.40;51.02
84578;BME280;74803;44.756;19.218;2023-12-20T05:06:19;100175.13;;;8.23;51.76
84578;BME280;74803;44.756;19.218;2023-12-20T05:08:45;100176.69;;;8.93;50.00
84578;BME280;74803;44.756;19.218;2023-12-20T05:11:10;100177.78;;;9.17;50.07
84578;BME280;74803;44.756;19.218;2023-12-20T05:13:36;100176.19;;;9.24;49.06
84578;BME280;74803;44.756;19.218;2023-12-20T05:16:01;100176.88;;;8.92;49.89
84578;BME280;74803;44.756;19.218;2023-12-20T05:18:27;100180.69;;;8.80;49.85
84578;BME280;74803;44.756;19.218;2023-12-20T05:20:53;100174.75;;;8.87;50.56
84578;BME280;74803;44.756;19.218;2023-12-20T05:23:18;100182.78;;;9.10;49.85
84578;BME280;74803;44.756;19.218;2023-12-20T05:25:45;100174.44;;;9.32;49.53
84578;BME280;74803;44.756;19.218;2023-12-20T05:28:11;100167.47;;;9.33;48.97
84578;BME280;74803;44.756;19.218;2023-12-20T05:30:36;100163.19;;;9.16;49.79
84578;BME280;74803;44.756;19.218;2023-12-20T05:33:02;100164.47;;;9.62;47.93
84578;BME280;74803;44.756;19.218;2023-12-20T05:35:28;100159.28;;;9.70;48.02
84578;BME280;74803;44.756;19.218;2023-12-20T05:37:53;100158.13;;;9.64;48.08
84578;BME280;74803;44.756;19.218;2023-12-20T05:40:19;100155.22;;;9.59;48.67
84578;BME280;74803;44.756;19.218;2023-12-20T05:42:44;100153.72;;;9.40;49.19
84578;BME280;74803;44.756;19.218;2023-12-20T05:45:10;100149.78;;;9.28;49.14
84578;BME280;74803;44.756;19.218;2023-12-20T05:47:36;100147.72;;;9.40;49.39
84578;BME280;74803;44.756;19.218;2023-12-20T05:50:02;100150.16;;;9.41;48.94
84578;BME280;74803;44.756;19.218;2023-12-20T05:52:27;100142.75;;;9.71;47.86
84578;BME280;74803;44.756;19.218;2023-12-20T05:54:53;100138.72;;;9.76;47.99
84578;BME280;74803;44.756;19.218;2023-12-20T05:57:19;100140.78;;;9.73;47.93
84578;BME280;74803;44.756;19.218;2023-12-20T05:59:44;100131.91;;;9.91;47.30
84578;BME280;74803;44.756;19.218;2023-12-20T06:02:10;100127.31;;;9.53;48.13
84578;BME280;74803;44.756;19.218;2023-12-20T06:04:35;100133.16;;;9.55;48.80
84578;BME280;74803;44.756;19.218;2023-12-20T06:07:02;100137.53;;;9.63;48.44
84578;BME280;74803;44.756;19.218;2023-12-20T06:09:28;100137.19;;;9.49;48.44
84578;BME280;74803;44.756;19.218;2023-12-20T06:11:54;100131.22;;;9.73;48.00
84578;BME280;74803;44.756;19.218;2023-12-20T06:14:20;100138.38;;;10.04;47.08
84578;BME280;74803;44.756;19.218;2023-12-20T06:16:45;100131.06;;;9.83;47.59
84578;BME280;74803;44.756;19.218;2023-12-20T06:19:11;100135.94;;;9.70;48.41
84578;BME280;74803;44.756;19.218;2023-12-20T06:21:37;100137.41;;;10.29;47.08
84578;BME280;74803;44.756;19.218;2023-12-20T06:24:03;100138.09;;;10.78;45.26
84578;BME280;74803;44.756;19.218;2023-12-20T06:26:28;100142.06;;;11.05;44.96
84578;BME280;74803;44.756;19.218;2023-12-20T06:28:54;100134.00;;;11.53;43.97
84578;BME280;74803;44.756;19.218;2023-12-20T06:31:20;100130.47;;;11.92;43.09
84578;BME280;74803;44.756;19.218;2023-12-20T06:33:46;100133.09;;;12.73;41.79
84578;BME280;74803;44.756;19.218;2023-12-20T06:36:13;100134.09;;;12.43;41.96
84578;BME280;74803;44.756;19.218;2023-12-20T06:38:39;100131.47;;;12.28;42.39
84578;BME280;74803;44.756;19.218;2023-12-20T06:41:05;100130.66;;;12.28;42.51
84578;BME280;74803;44.756;19.218;2023-12-20T06:43:31;100137.72;;;11.82;43.40
84578;BME280;74803;44.756;19.218;2023-12-20T06:45:57;100140.84;;;12.15;43.05
84578;BME280;74803;44.756;19.218;2023-12-20T06:48:23;100147.91;;;12.58;42.37
84578;BME280;74803;44.756;19.218;2023-12-20T06:50:48;100148.19;;;10.73;45.49
84578;BME280;74803;44.756;19.218;2023-12-20T06:53:14;100144.53;;;10.43;47.11
84578;BME280;74803;44.756;19.218;2023-12-20T06:55:40;100138.53;;;13.08;41.99
84578;BME280;74803;44.756;19.218;2023-12-20T06:58:05;100137.41;;;13.67;40.52
84578;BME280;74803;44.756;19.218;2023-12-20T07:00:32;100130.34;;;13.61;39.72
84578;BME280;74803;44.756;19.218;2023-12-20T07:02:58;100131.19;;;14.11;38.99
84578;BME280;74803;44.756;19.218;2023-12-20T07:05:24;100133.75;;;10.62;44.44
84578;BME280;74803;44.756;19.218;2023-12-20T07:07:50;100127.34;;;10.34;46.39
84578;BME280;74803;44.756;19.218;2023-12-20T07:10:15;100133.22;;;10.20;46.77
84578;BME280;74803;44.756;19.218;2023-12-20T07:12:41;100129.16;;;10.25;47.18
84578;BME280;74803;44.756;19.218;2023-12-20T07:15:07;100136.72;;;10.43;47.25
84578;BME280;74803;44.756;19.218;2023-12-20T07:17:33;100135.59;;;10.46;46.78
84578;BME280;74803;44.756;19.218;2023-12-20T07:19:59;100133.03;;;10.29;47.45
84578;BME280;74803;44.756;19.218;2023-12-20T07:22:33;100131.09;;;10.23;47.02
84578;BME280;74803;44.756;19.218;2023-12-20T07:24:59;100130.47;;;9.15;49.21
84578;BME280;74803;44.756;19.218;2023-12-20T07:27:26;100128.44;;;8.58;50.41
84578;BME280;74803;44.756;19.218;2023-12-20T07:29:53;100136.06;;;8.34;51.35
84578;BME280;74803;44.756;19.218;2023-12-20T07:32:18;100130.50;;;7.86;52.08
84578;BME280;74803;44.756;19.218;2023-12-20T07:34:44;100131.72;;;8.17;51.66
84578;BME280;74803;44.756;19.218;2023-12-20T07:37:10;100132.97;;;7.87;51.85
84578;BME280;74803;44.756;19.218;2023-12-20T07:39:40;100130.31;;;7.79;52.42
84578;BME280;74803;44.756;19.218;2023-12-20T07:42:07;100135.31;;;7.27;53.70
84578;BME280;74803;44.756;19.218;2023-12-20T07:44:33;100127.41;;;7.29;53.87
84578;BME280;74803;44.756;19.218;2023-12-20T07:46:58;100130.19;;;7.18;54.14
84578;BME280;74803;44.756;19.218;2023-12-20T07:49:24;100129.69;;;8.03;53.34
84578;BME280;74803;44.756;19.218;2023-12-20T07:51:49;100128.16;;;7.92;52.83
84578;BME280;74803;44.756;19.218;2023-12-20T07:54:16;100123.44;;;7.88;52.56
84578;BME280;74803;44.756;19.218;2023-12-20T07:56:43;100127.72;;;7.79;52.38
84578;BME280;74803;44.756;19.218;2023-12-20T07:59:09;100135.19;;;7.64;52.71
84578;BME280;74803;44.756;19.218;2023-12-20T08:01:34;100131.97;;;8.06;52.69
84578;BME280;74803;44.756;19.218;2023-12-20T08:04:00;100123.47;;;8.39;52.11
84578;BME280;74803;44.756;19.218;2023-12-20T08:06:25;100124.69;;;8.27;51.56
84578;BME280;74803;44.756;19.218;2023-12-20T08:08:52;100129.97;;;8.69;50.73
84578;BME280;74803;44.756;19.218;2023-12-20T08:11:18;100127.91;;;8.81;50.88
84578;BME280;74803;44.756;19.218;2023-12-20T08:13:44;100126.69;;;8.93;50.51
84578;BME280;74803;44.756;19.218;2023-12-20T08:16:10;100119.69;;;8.93;50.78
84578;BME280;74803;44.756;19.218;2023-12-20T08:18:39;100121.03;;;8.97;51.13
84578;BME280;74803;44.756;19.218;2023-12-20T08:21:04;100120.97;;;9.31;49.42
84578;BME280;74803;44.756;19.218;2023-12-20T08:23:35;100123.38;;;9.17;50.26
84578;BME280;74803;44.756;19.218;2023-12-20T08:26:05;100120.69;;;9.59;49.35
84578;BME280;74803;44.756;19.218;2023-12-20T08:28:31;100130.28;;;9.90;48.81
84578;BME280;74803;44.756;19.218;2023-12-20T08:30:59;100119.72;;;10.16;47.28
84578;BME280;74803;44.756;19.218;2023-12-20T08:33:25;100136.41;;;10.14;48.18
84578;BME280;74803;44.756;19.218;2023-12-20T08:35:50;100135.31;;;10.00;48.43
84578;BME280;74803;44.756;19.218;2023-12-20T08:38:16;100138.03;;;10.39;47.43
84578;BME280;74803;44.756;19.218;2023-12-20T08:40:43;100151.66;;;10.96;47.21
84578;BME280;74803;44.756;19.218;2023-12-20T08:43:09;100140.56;;;11.10;46.17
84578;BME280;74803;44.756;19.218;2023-12-20T08:45:41;100142.31;;;11.49;44.82
84578;BME280;74803;44.756;19.218;2023-12-20T08:48:08;100143.38;;;11.62;44.24
84578;BME280;74803;44.756;19.218;2023-12-20T08:50:34;100135.91;;;12.72;43.44
84578;BME280;74803;44.756;19.218;2023-12-20T08:53:00;100137.63;;;13.30;40.29
84578;BME280;74803;44.756;19.218;2023-12-20T08:55:25;100138.28;;;13.32;42.38
84578;BME280;74803;44.756;19.218;2023-12-20T08:57:52;100135.88;;;13.52;41.44
84578;BME280;74803;44.756;19.218;2023-12-20T09:00:18;100130.47;;;14.02;40.36
84578;BME280;74803;44.756;19.218;2023-12-20T09:02:46;100136.50;;;14.93;38.62
84578;BME280;74803;44.756;19.218;2023-12-20T09:05:11;100129.59;;;14.16;40.77
84578;BME280;74803;44.756;19.218;2023-12-20T09:07:37;100133.25;;;14.22;40.89
84578;BME280;74803;44.756;19.218;2023-12-20T09:10:04;100125.22;;;14.51;39.55
84578;BME280;74803;44.756;19.218;2023-12-20T09:12:30;100131.34;;;15.99;37.66
84578;BME280;74803;44.756;19.218;2023-12-20T09:14:56;100114.53;;;16.53;36.41
84578;BME280;74803;44.756;19.218;2023-12-20T09:17:22;100108.41;;;17.30;35.38
84578;BME280;74803;44.756;19.218;2023-12-20T09:20:13;100103.22;;;17.17;35.74
84578;BME280;74803;44.756;19.218;2023-12-20T09:22:43;100101.94;;;17.64;35.68
84578;BME280;74803;44.756;19.218;2023-12-20T09:25:19;100102.72;;;16.11;38.10
84578;BME280;74803;44.756;19.218;2023-12-20T09:27:45;100092.41;;;17.69;35.77
84578;BME280;74803;44.756;19.218;2023-12-20T09:30:11;100095.31;;;17.55;36.31
84578;BME280;74803;44.756;19.218;2023-12-20T09:32:38;100088.72;;;16.57;38.46
84578;BME280;74803;44.756;19.218;2023-12-20T09:35:04;100080.69;;;16.38;38.97
84578;BME280;74803;44.756;19.218;2023-12-20T09:37:31;100089.34;;;16.59;38.01
84578;BME280;74803;44.756;19.218;2023-12-20T09:39:57;100097.66;;;17.38;36.66
84578;BME280;74803;44.756;19.218;2023-12-20T09:42:40;100088.09;;;17.50;36.67
84578;BME280;74803;44.756;19.218;2023-12-20T09:45:15;100089.84;;;17.56;36.95
84578;BME280;74803;44.756;19.218;2023-12-20T09:47:43;100088.59;;;15.99;38.92
84578;BME280;74803;44.756;19.218;2023-12-20T09:50:10;100080.44;;;16.66;38.61
84578;BME280;74803;44.756;19.218;2023-12-20T09:52:36;100084.81;;;15.69;39.46
84578;BME280;74803;44.756;19.218;2023-12-20T09:55:04;100083.66;;;17.13;36.61
84578;BME280;74803;44.756;19.218;2023-12-20T09:57:33;100080.94;;;16.11;38.08
84578;BME280;74803;44.756;19.218;2023-12-20T10:00:00;100078.72;;;16.01;38.19
84578;BME280;74803;44.756;19.218;2023-12-20T10:02:27;100080.63;;;16.71;37.70
84578;BME280;74803;44.756;19.218;2023-12-20T10:04:54;100081.00;;;18.25;35.15
84578;BME280;74803;44.756;19.218;2023-12-20T10:07:20;100080.88;;;18.38;34.79
84578;BME280;74803;44.756;19.218;2023-12-20T10:09:50;100088.22;;;19.32;33.07
84578;BME280;74803;44.756;19.218;2023-12-20T10:12:21;100068.50;;;17.78;34.68
84578;BME280;74803;44.756;19.218;2023-12-20T10:14:46;100075.84;;;17.69;35.09
84578;BME280;74803;44.756;19.218;2023-12-20T10:17:12;100065.97;;;17.89;34.19
84578;BME280;74803;44.756;19.218;2023-12-20T10:19:38;100068.72;;;17.13;35.72
84578;BME280;74803;44.756;19.218;2023-12-20T10:22:04;100071.97;;;19.06;32.92
84578;BME280;74803;44.756;19.218;2023-12-20T10:24:30;100065.63;;;19.25;32.36
84578;BME280;74803;44.756;19.218;2023-12-20T10:27:08;100064.50;;;19.62;31.79
84578;BME280;74803;44.756;19.218;2023-12-20T10:29:44;100053.84;;;20.27;30.81
84578;BME280;74803;44.756;19.218;2023-12-20T10:32:27;100055.69;;;19.27;32.18
84578;BME280;74803;44.756;19.218;2023-12-20T10:34:57;100053.84;;;18.49;33.85
84578;BME280;74803;44.756;19.218;2023-12-20T10:37:25;100048.22;;;17.85;34.68
84578;BME280;74803;44.756;19.218;2023-12-20T10:39:55;100056.94;;;16.91;36.48
84578;BME280;74803;44.756;19.218;2023-12-20T10:42:27;100062.66;;;16.75;36.63
84578;BME280;74803;44.756;19.218;2023-12-20T10:44:54;100055.97;;;17.17;36.72
84578;BME280;74803;44.756;19.218;2023-12-20T10:47:36;100058.75;;;17.22;36.37
84578;BME280;74803;44.756;19.218;2023-12-20T10:50:05;100054.63;;;16.57;37.91
84578;BME280;74803;44.756;19.218;2023-12-20T10:52:32;100060.81;;;17.20;36.50
84578;BME280;74803;44.756;19.218;2023-12-20T10:54:59;100064.78;;;16.27;38.06
84578;BME280;74803;44.756;19.218;2023-12-20T10:57:35;100076.59;;;17.13;37.30
84578;BME280;74803;44.756;19.218;2023-12-20T11:00:03;100076.53;;;17.83;35.10
84578;BME280;74803;44.756;19.218;2023-12-20T11:02:39;100070.34;;;18.75;34.31
84578;BME280;74803;44.756;19.218;2023-12-20T11:08:12;100086.81;;;19.18;32.56
84578;BME280;74803;44.756;19.218;2023-12-20T11:11:13;100083.75;;;19.33;32.36
84578;BME280;74803;44.756;19.218;2023-12-20T11:13:57;100077.63;;;18.36;33.81
84578;BME280;74803;44.756;19.218;2023-12-20T11:16:28;100079.81;;;18.64;33.82
84578;BME280;74803;44.756;19.218;2023-12-20T11:18:53;100082.09;;;17.93;34.97
84578;BME280;74803;44.756;19.218;2023-12-20T11:21:20;100078.66;;;18.17;34.38
84578;BME280;74803;44.756;19.218;2023-12-20T11:23:46;100072.31;;;17.50;35.35
84578;BME280;74803;44.756;19.218;2023-12-20T11:26:15;100078.34;;;17.82;34.57
84578;BME280;74803;44.756;19.218;2023-12-20T11:28:41;100079.34;;;17.25;35.40
84578;BME280;74803;44.756;19.218;2023-12-20T11:31:07;100089.03;;;17.24;35.67
84578;BME280;74803;44.756;19.218;2023-12-20T11:33:37;100083.31;;;17.41;35.71
84578;BME280;74803;44.756;19.218;2023-12-20T11:36:06;100083.53;;;17.33;35.83
84578;BME280;74803;44.756;19.218;2023-12-20T11:38:56;100087.56;;;17.66;35.84
84578;BME280;74803;44.756;19.218;2023-12-20T11:41:31;100089.97;;;17.05;37.17
84578;BME280;74803;44.756;19.218;2023-12-20T11:43:58;100084.72;;;16.41;38.40
84578;BME280;74803;44.756;19.218;2023-12-20T11:46:31;100077.72;;;16.09;39.99
84578;BME280;74803;44.756;19.218;2023-12-20T11:49:02;100072.44;;;15.49;41.04
84578;BME280;74803;44.756;19.218;2023-12-20T11:51:30;100075.88;;;15.43;40.94
84578;BME280;74803;44.756;19.218;2023-12-20T11:53:55;100062.44;;;15.92;40.34
84578;BME280;74803;44.756;19.218;2023-12-20T11:56:21;100061.00;;;15.77;40.06
84578;BME280;74803;44.756;19.218;2023-12-20T11:58:52;100061.25;;;14.88;42.22
84578;BME280;74803;44.756;19.218;2023-12-20T12:01:21;100056.72;;;15.30;41.65
84578;BME280;74803;44.756;19.218;2023-12-20T12:03:47;100056.50;;;15.25;41.21
84578;BME280;74803;44.756;19.218;2023-12-20T12:06:13;100055.94;;;14.75;43.33
84578;BME280;74803;44.756;19.218;2023-12-20T12:08:39;100055.25;;;15.07;42.78
84578;BME280;74803;44.756;19.218;2023-12-20T12:11:04;100066.81;;;14.72;43.18
84578;BME280;74803;44.756;19.218;2023-12-20T12:13:31;100050.22;;;15.06;42.36
84578;BME280;74803;44.756;19.218;2023-12-20T12:15:56;100045.72;;;15.93;41.18
84578;BME280;74803;44.756;19.218;2023-12-20T12:18:38;100042.00;;;15.16;42.87
84578;BME280;74803;44.756;19.218;2023-12-20T12:21:04;100047.22;;;13.93;44.93
84578;BME280;74803;44.756;19.218;2023-12-20T12:23:29;100049.06;;;14.26;44.47
84578;BME280;74803;44.756;19.218;2023-12-20T12:25:56;100051.09;;;14.31;44.80
84578;BME280;74803;44.756;19.218;2023-12-20T12:28:26;100052.88;;;14.58;44.12
84578;BME280;74803;44.756;19.218;2023-12-20T12:30:59;100066.41;;;14.75;44.66
84578;BME280;74803;44.756;19.218;2023-12-20T12:33:25;100050.91;;;14.33;44.58
84578;BME280;74803;44.756;19.218;2023-12-20T12:35:51;100053.25;;;14.49;44.44
84578;BME280;74803;44.756;19.218;2023-12-20T12:38:21;100047.09;;;15.89;40.67
84578;BME280;74803;44.756;19.218;2023-12-20T12:40:47;100049.09;;;15.94;41.11
84578;BME280;74803;44.756;19.218;2023-12-20T12:43:14;100044.09;;;15.66;41.83
84578;BME280;74803;44.756;19.218;2023-12-20T12:45:40;100056.78;;;14.82;43.67
84578;BME280;74803;44.756;19.218;2023-12-20T12:48:07;100052.00;;;14.10;44.62
84578;BME280;74803;44.756;19.218;2023-12-20T12:50:32;100061.34;;;14.33;44.57